Time;durP1;ratioP1;P1;durP2;ratioP2;P2;SDS_P1;SDS_P2;PMS_P1;PMS_P2;Temp;Humidity;BMP_temperature;BMP_pressure;BME280_temperature;BME280_humidity;BME280_pressure;Samples;Min_cycle;Max_cycle;Signal;HPM_P1;HPM_P2
2022/03/07 00:02:12;;;;;;;9.95;2.25;;;3.10;99.90;;;;;;5083964;28;20047;-72
2022/03/07 00:04:38;;;;;;;9.32;2.13;;;3.10;99.90;;;;;;5099987;28;20030;-72
2022/03/07 00:07:04;;;;;;;9.65;2.00;;;3.00;99.90;;;;;;5082641;28;20043;-73
2022/03/07 00:09:29;;;;;;;10.52;2.42;;;3.10;99.90;;;;;;5082638;28;20067;-72
2022/03/07 00:11:55;;;;;;;8.23;2.40;;;3.10;99.90;;;;;;5082952;28;20032;-73
2022/03/07 00:14:21;;;;;;;12.63;2.40;;;3.10;99.90;;;;;;5063956;28;20056;-74
2022/03/07 00:16:47;;;;;;;11.02;2.60;;;3.10;99.90;;;;;;5063593;28;20350;-72
2022/03/07 00:19:12;;;;;;;7.95;2.30;;;3.10;99.90;;;;;;5062673;28;20028;-73
2022/03/07 00:21:39;;;;;;;10.15;2.53;;;3.10;99.90;;;;;;5063694;28;20025;-72
2022/03/07 00:24:06;;;;;;;10.80;2.70;;;3.20;99.90;;;;;;5078085;28;20029;-73
2022/03/07 00:26:32;;;;;;;12.77;2.70;;;3.20;99.90;;;;;;5078816;28;20375;-71
2022/03/07 00:28:58;;;;;;;6.00;2.38;;;3.20;99.90;;;;;;5063279;28;20037;-72
2022/03/07 00:31:24;;;;;;;7.90;2.28;;;3.30;99.90;;;;;;5079291;28;20025;-73
2022/03/07 00:33:50;;;;;;;7.25;2.53;;;3.30;99.90;;;;;;5063536;28;20021;-72
2022/03/07 00:36:17;;;;;;;6.47;2.20;;;3.30;99.90;;;;;;5078904;28;20363;-73
2022/03/07 00:38:43;;;;;;;7.57;2.15;;;3.40;99.90;;;;;;5063660;28;20021;-73
2022/03/07 00:41:09;;;;;;;7.82;2.08;;;3.50;99.90;;;;;;5063800;28;20071;-72
2022/03/07 00:43:35;;;;;;;11.63;2.10;;;3.50;99.90;;;;;;5079190;28;20032;-73
2022/03/07 00:46:02;;;;;;;9.18;1.73;;;3.50;99.90;;;;;;5063176;28;20359;-73
2022/03/07 00:48:27;;;;;;;9.25;2.30;;;3.50;99.90;;;;;;5062493;28;20021;-72
2022/03/07 00:50:53;;;;;;;9.57;1.95;;;3.50;99.90;;;;;;5063079;28;20024;-73
2022/03/07 00:53:23;;;;;;;9.95;1.90;;;3.40;99.90;;;;;;5063069;28;20250;-74
2022/03/07 00:55:54;;;;;;;14.80;2.10;;;3.50;99.90;;;;;;5067218;28;20033;-73
2022/03/07 00:58:21;;;;;;;8.65;1.90;;;3.50;99.90;;;;;;5065943;28;20268;-72
2022/03/07 01:00:47;;;;;;;9.73;2.17;;;3.50;99.90;;;;;;5066285;28;20059;-72
2022/03/07 01:03:14;;;;;;;5.65;1.92;;;3.50;99.90;;;;;;5083090;28;20025;-73
2022/03/07 01:05:41;;;;;;;8.82;1.60;;;3.50;99.90;;;;;;5065976;28;20033;-72
2022/03/07 01:08:08;;;;;;;5.82;2.30;;;3.50;99.90;;;;;;5082911;28;20024;-74
2022/03/07 01:10:34;;;;;;;6.10;1.67;;;3.50;99.90;;;;;;5067270;28;20035;-72
2022/03/07 01:13:00;;;;;;;6.80;2.72;;;3.50;99.90;;;;;;5077175;28;20238;-73
2022/03/07 01:15:26;;;;;;;6.97;2.83;;;3.50;99.90;;;;;;5087351;28;20035;-73
2022/03/07 01:17:54;;;;;;;8.73;1.80;;;3.40;99.90;;;;;;5085989;28;20318;-73
2022/03/07 01:20:20;;;;;;;9.70;1.98;;;3.40;99.90;;;;;;5087068;28;20020;-72
2022/03/07 01:22:46;;;;;;;7.90;1.70;;;3.50;99.90;;;;;;5102825;28;20216;-73
2022/03/07 01:25:11;;;;;;;9.73;1.63;;;3.50;99.90;;;;;;5085394;28;20074;-72
2022/03/07 01:27:37;;;;;;;11.50;2.00;;;3.50;99.90;;;;;;5086887;28;20020;-72
2022/03/07 01:30:05;;;;;;;10.25;2.78;;;3.50;99.90;;;;;;5086672;28;20046;-73
2022/03/07 01:32:30;;;;;;;10.02;1.92;;;3.50;99.90;;;;;;5086874;28;20070;-72
2022/03/07 01:34:56;;;;;;;12.48;2.00;;;3.50;99.90;;;;;;5086409;28;20020;-73
2022/03/07 01:37:22;;;;;;;12.68;1.55;;;3.50;99.90;;;;;;5085662;28;20020;-72
2022/03/07 01:39:47;;;;;;;8.50;1.80;;;3.60;99.90;;;;;;5086928;28;20306;-73
2022/03/07 01:42:13;;;;;;;8.52;1.58;;;3.60;99.90;;;;;;5102411;28;20196;-72
2022/03/07 01:44:39;;;;;;;8.07;1.73;;;3.70;99.90;;;;;;5086508;28;20028;-72
2022/03/07 01:47:06;;;;;;;9.93;1.90;;;3.70;99.90;;;;;;5102115;28;20024;-72
2022/03/07 01:49:32;;;;;;;8.23;2.08;;;3.70;99.90;;;;;;5086483;28;20028;-72
2022/03/07 01:51:57;;;;;;;5.28;1.65;;;3.70;99.90;;;;;;5086485;28;20199;-73
2022/03/07 01:54:24;;;;;;;9.75;2.45;;;3.70;99.90;;;;;;5085495;28;20215;-73
2022/03/07 01:56:52;;;;;;;3.55;1.45;;;3.80;99.90;;;;;;5086457;28;20048;-72
2022/03/07 01:59:20;;;;;;;13.52;1.85;;;3.80;99.90;;;;;;5085824;28;20059;-72
2022/03/07 02:01:46;;;;;;;5.30;1.65;;;3.80;99.90;;;;;;5086393;28;20083;-72
2022/03/07 02:04:12;;;;;;;10.02;1.67;;;3.80;99.90;;;;;;5101969;28;20021;-72
2022/03/07 02:06:38;;;;;;;6.00;1.58;;;3.80;99.90;;;;;;5085761;28;20290;-72
2022/03/07 02:09:06;;;;;;;6.53;1.42;;;3.80;99.90;;;;;;5101689;28;20032;-73
2022/03/07 02:11:32;;;;;;;5.43;1.95;;;3.80;99.90;;;;;;5084998;28;20048;-72
2022/03/07 02:13:58;;;;;;;4.50;1.30;;;3.80;99.90;;;;;;5083753;28;20021;-72
2022/03/07 02:16:24;;;;;;;10.15;1.70;;;3.80;99.90;;;;;;5066040;28;20048;-74
2022/03/07 02:18:51;;;;;;;6.50;1.65;;;3.80;99.90;;;;;;5065810;28;20025;-73
2022/03/07 02:21:18;;;;;;;6.90;1.67;;;3.80;99.90;;;;;;5065793;28;20048;-73
2022/03/07 02:23:44;;;;;;;9.43;2.13;;;3.80;99.90;;;;;;5081545;28;20027;-73
2022/03/07 02:26:12;;;;;;;9.05;1.80;;;3.80;99.90;;;;;;5064376;28;20025;-72
2022/03/07 02:28:40;;;;;;;13.38;1.67;;;3.80;99.90;;;;;;5080828;28;20035;-73
2022/03/07 02:31:06;;;;;;;10.63;2.45;;;3.80;99.90;;;;;;5080719;28;20025;-73
2022/03/07 02:33:33;;;;;;;7.65;1.33;;;3.90;99.90;;;;;;5064573;28;20100;-72
2022/03/07 02:35:59;;;;;;;5.72;1.20;;;3.90;99.90;;;;;;5065666;28;20032;-74
2022/03/07 02:38:25;;;;;;;5.32;1.13;;;3.90;99.90;;;;;;5064357;28;20028;-72
2022/03/07 02:40:51;;;;;;;10.18;1.27;;;3.90;99.90;;;;;;5065488;28;20354;-71
2022/03/07 02:43:18;;;;;;;9.18;1.33;;;3.90;99.90;;;;;;5081216;28;20036;-73
2022/03/07 02:45:44;;;;;;;10.05;1.50;;;3.90;99.90;;;;;;5065419;28;20063;-73
2022/03/07 02:48:10;;;;;;;9.55;1.67;;;3.90;99.90;;;;;;5064253;28;20029;-72
2022/03/07 02:50:35;;;;;;;7.32;1.50;;;3.90;99.90;;;;;;5064158;28;20021;-73
2022/03/07 02:53:02;;;;;;;7.85;1.33;;;3.90;99.90;;;;;;5065332;28;20029;-73
2022/03/07 02:55:27;;;;;;;8.82;1.40;;;3.90;99.90;;;;;;5065505;28;20032;-72
2022/03/07 02:57:53;;;;;;;6.40;1.48;;;4.00;99.90;;;;;;5064144;28;20300;-73
2022/03/07 03:00:20;;;;;;;7.80;1.42;;;4.00;99.90;;;;;;5064520;28;20220;-72
2022/03/07 03:02:45;;;;;;;9.38;1.40;;;4.00;99.90;;;;;;5065091;28;20021;-74
2022/03/07 03:05:12;;;;;;;7.05;1.40;;;4.00;99.90;;;;;;5065092;28;20021;-72
2022/03/07 03:07:37;;;;;;;5.93;1.42;;;4.00;99.90;;;;;;5064130;28;20024;-72
2022/03/07 03:10:04;;;;;;;8.93;1.10;;;4.10;99.90;;;;;;5080455;28;20027;-71
2022/03/07 03:12:30;;;;;;;7.00;1.23;;;4.10;99.90;;;;;;5086487;28;20330;-74
2022/03/07 03:14:56;;;;;;;6.20;1.25;;;4.10;99.90;;;;;;5084992;28;20021;-73
2022/03/07 03:17:22;;;;;;;5.95;1.08;;;4.10;99.90;;;;;;5083975;28;20051;-73
2022/03/07 03:19:48;;;;;;;5.25;1.10;;;4.10;99.90;;;;;;5100522;28;20342;-71
2022/03/07 03:22:14;;;;;;;7.10;1.23;;;4.20;99.90;;;;;;5084757;28;20087;-72
2022/03/07 03:24:40;;;;;;;10.18;1.17;;;4.20;99.90;;;;;;5084996;28;20027;-72
2022/03/07 03:27:05;;;;;;;7.93;1.40;;;4.20;99.90;;;;;;5083149;28;20032;-73
2022/03/07 03:29:31;;;;;;;6.32;0.98;;;4.20;99.90;;;;;;5084261;28;20083;-72
2022/03/07 03:31:58;;;;;;;4.80;1.05;;;4.20;99.90;;;;;;5050253;28;20040;-72
2022/03/07 03:34:25;;;;;;;4.00;1.00;;;4.20;99.90;;;;;;5084414;28;20036;-72
2022/03/07 03:36:51;;;;;;;5.25;1.10;;;4.20;99.90;;;;;;5083430;28;20016;-73
2022/03/07 03:39:16;;;;;;;8.07;1.10;;;4.20;99.90;;;;;;5100181;28;20069;-72
2022/03/07 03:41:42;;;;;;;9.18;1.00;;;4.20;99.90;;;;;;5084510;28;20017;-73
2022/03/07 03:44:08;;;;;;;7.25;1.20;;;4.20;99.90;;;;;;5084453;28;20021;-73
2022/03/07 03:46:33;;;;;;;6.85;0.80;;;4.20;99.90;;;;;;5082958;28;20271;-74
2022/03/07 03:48:59;;;;;;;6.03;1.02;;;4.20;99.90;;;;;;5099582;28;20023;-73
2022/03/07 03:51:25;;;;;;;9.50;1.02;;;4.30;99.90;;;;;;5083881;28;20020;-72
2022/03/07 03:53:50;;;;;;;6.85;1.17;;;4.30;99.90;;;;;;5084194;28;20034;-73
2022/03/07 03:56:16;;;;;;;8.93;1.20;;;4.30;99.90;;;;;;5049699;28;20024;-74
2022/03/07 03:58:42;;;;;;;8.45;1.60;;;4.30;99.90;;;;;;5082790;28;20020;-72
2022/03/07 04:01:08;;;;;;;8.18;1.10;;;4.20;99.90;;;;;;5083921;28;20376;-72
2022/03/07 04:03:34;;;;;;;7.68;1.20;;;4.20;99.90;;;;;;5099617;28;20024;-73
2022/03/07 04:06:00;;;;;;;9.95;1.23;;;4.20;99.90;;;;;;5084041;28;20028;-73
2022/03/07 04:08:26;;;;;;;11.43;1.40;;;4.20;99.90;;;;;;5084128;28;20318;-73
2022/03/07 04:10:52;;;;;;;8.40;0.98;;;4.20;99.90;;;;;;5099348;28;20290;-72
2022/03/07 04:13:17;;;;;;;5.88;1.05;;;4.20;99.90;;;;;;5079647;28;20092;-72
2022/03/07 04:15:43;;;;;;;7.78;1.38;;;4.20;99.90;;;;;;5063944;28;20021;-72
2022/03/07 04:18:09;;;;;;;7.32;1.05;;;4.20;99.90;;;;;;5063793;28;20080;-72
2022/03/07 04:20:34;;;;;;;11.68;1.50;;;4.20;99.90;;;;;;5062496;28;20220;-73
2022/03/07 04:23:01;;;;;;;4.93;1.23;;;4.20;99.90;;;;;;5062734;28;20033;-72
2022/03/07 04:25:27;;;;;;;9.32;1.25;;;4.20;99.90;;;;;;5063705;28;20040;-72
2022/03/07 04:27:52;;;;;;;9.85;1.05;;;4.30;99.90;;;;;;5045814;28;20045;-73
2022/03/07 04:30:19;;;;;;;9.23;1.08;;;4.30;99.90;;;;;;5060724;28;20065;-72
2022/03/07 04:32:45;;;;;;;10.25;1.20;;;4.30;99.90;;;;;;5063577;28;20091;-73
2022/03/07 04:35:11;;;;;;;6.50;0.73;;;4.30;99.90;;;;;;5063477;28;20099;-73
2022/03/07 04:37:41;;;;;;;9.80;1.05;;;4.30;99.90;;;;;;5062643;28;20051;-74
2022/03/07 04:40:16;;;;;;;6.68;1.05;;;4.30;99.90;;;;;;5062442;28;20029;-72
2022/03/07 04:42:44;;;;;;;10.18;1.27;;;4.30;99.90;;;;;;5062463;28;20017;-72
2022/03/07 04:45:11;;;;;;;8.65;1.20;;;4.30;99.90;;;;;;5062346;28;20053;-73
2022/03/07 04:47:37;;;;;;;6.97;1.30;;;4.30;99.90;;;;;;5062423;28;20029;-73
2022/03/07 04:50:04;;;;;;;11.45;1.10;;;4.30;99.90;;;;;;5063305;28;20380;-72
2022/03/07 04:52:30;;;;;;;8.70;1.05;;;4.30;99.90;;;;;;5063425;28;20087;-73
2022/03/07 04:54:55;;;;;;;9.35;1.15;;;4.30;99.90;;;;;;5045702;28;20025;-72
2022/03/07 04:57:21;;;;;;;7.43;1.02;;;4.30;99.90;;;;;;5063354;28;20029;-73
2022/03/07 04:59:47;;;;;;;10.13;1.60;;;4.30;99.90;;;;;;5062007;28;20244;-73
2022/03/07 05:02:13;;;;;;;10.00;1.20;;;4.30;99.90;;;;;;5063128;28;20060;-72
2022/03/07 05:04:40;;;;;;;5.40;1.27;;;4.30;99.90;;;;;;5061880;28;20304;-72
2022/03/07 05:07:06;;;;;;;8.75;1.20;;;4.40;99.90;;;;;;5063310;28;20051;-72
2022/03/07 05:09:32;;;;;;;6.50;0.90;;;4.40;99.90;;;;;;5063288;28;20092;-73
2022/03/07 05:11:58;;;;;;;8.45;1.13;;;4.30;99.90;;;;;;5063380;28;20025;-71
2022/03/07 05:14:24;;;;;;;3.53;1.73;;;4.40;99.90;;;;;;5099104;28;20287;-71
2022/03/07 05:16:50;;;;;;;9.43;1.35;;;4.40;99.90;;;;;;5083315;28;20025;-73
2022/03/07 05:19:15;;;;;;;12.93;1.35;;;4.40;99.90;;;;;;5082801;28;20031;-71
2022/03/07 05:21:41;;;;;;;9.23;1.33;;;4.40;99.90;;;;;;5083122;28;20303;-72
2022/03/07 05:24:07;;;;;;;7.22;0.70;;;4.40;99.90;;;;;;5083237;28;20070;-72
2022/03/07 05:26:33;;;;;;;5.63;1.23;;;4.40;99.90;;;;;;5083234;28;20328;-72
2022/03/07 05:28:59;;;;;;;6.97;0.93;;;4.40;99.90;;;;;;5098428;28;20035;-72
2022/03/07 05:31:25;;;;;;;9.75;1.40;;;4.40;99.90;;;;;;5096895;28;20074;-72
2022/03/07 05:33:50;;;;;;;5.32;0.82;;;4.50;99.90;;;;;;5098696;28;20075;-73
2022/03/07 05:36:16;;;;;;;8.20;1.38;;;4.50;99.90;;;;;;5099008;28;20307;-73
2022/03/07 05:38:42;;;;;;;7.38;0.90;;;4.50;99.90;;;;;;5098785;28;20027;-73
2022/03/07 05:41:07;;;;;;;5.63;1.10;;;4.60;99.90;;;;;;5100695;28;20247;-72
2022/03/07 05:43:34;;;;;;;5.70;1.10;;;4.60;99.90;;;;;;5086882;28;20083;-73
2022/03/07 05:46:00;;;;;;;6.05;1.00;;;4.70;99.90;;;;;;5086573;28;20119;-73
2022/03/07 05:48:26;;;;;;;7.00;0.98;;;4.60;99.90;;;;;;5086445;28;20028;-72
2022/03/07 05:50:51;;;;;;;9.85;1.13;;;4.60;99.90;;;;;;5086313;28;20031;-73
2022/03/07 05:53:21;;;;;;;9.20;1.15;;;4.70;99.90;;;;;;5086525;28;20032;-73
2022/03/07 05:55:49;;;;;;;7.55;0.98;;;4.70;99.90;;;;;;5102009;28;20020;-73
2022/03/07 05:58:14;;;;;;;5.78;1.20;;;4.70;99.90;;;;;;5101733;28;20020;-72
2022/03/07 06:00:40;;;;;;;5.25;0.88;;;4.70;99.90;;;;;;5085090;28;20035;-73
2022/03/07 06:03:06;;;;;;;8.38;1.00;;;4.80;99.90;;;;;;5085641;28;20032;-73
2022/03/07 06:05:31;;;;;;;5.90;0.90;;;4.80;99.90;;;;;;5085864;28;20160;-73
2022/03/07 06:07:58;;;;;;;10.98;2.53;;;4.80;99.90;;;;;;5085143;28;20070;-72
2022/03/07 06:10:24;;;;;;;11.95;1.35;;;4.80;99.90;;;;;;5084942;28;20038;-73
2022/03/07 06:12:49;;;;;;;8.90;0.85;;;4.80;99.90;;;;;;5092840;28;20311;-74
2022/03/07 06:15:15;;;;;;;6.05;1.02;;;4.80;99.90;;;;;;5065054;28;20017;-74
2022/03/07 06:17:51;;;;;;;7.70;1.00;;;4.80;99.50;;;;;;5064803;28;20220;-73
2022/03/07 06:20:17;;;;;;;9.50;1.00;;;4.80;99.50;;;;;;5048570;28;20017;-73
2022/03/07 06:22:43;;;;;;;6.47;1.02;;;4.90;99.90;;;;;;5065551;28;20100;-73
2022/03/07 06:25:08;;;;;;;8.82;1.48;;;4.80;99.60;;;;;;5065830;28;20028;-72
2022/03/07 06:27:34;;;;;;;8.10;1.17;;;4.90;99.50;;;;;;5065830;28;20019;-73
2022/03/07 06:30:00;;;;;;;5.57;1.23;;;4.80;99.50;;;;;;5065556;28;20092;-75
2022/03/07 06:32:26;;;;;;;12.05;1.35;;;4.90;99.50;;;;;;5063942;28;20232;-72
2022/03/07 06:34:52;;;;;;;5.68;1.17;;;4.90;99.30;;;;;;5065263;28;20032;-76
2022/03/07 06:37:17;;;;;;;4.68;1.27;;;4.90;99.50;;;;;;5065693;28;20036;-74
2022/03/07 06:39:43;;;;;;;9.32;1.63;;;4.90;99.70;;;;;;5065038;28;20025;-74
2022/03/07 06:42:09;;;;;;;8.60;1.80;;;4.90;99.30;;;;;;5064100;28;20323;-73
2022/03/07 06:44:39;;;;;;;15.20;3.28;;;4.90;99.60;;;;;;5065306;28;20025;-73
2022/03/07 06:47:06;;;;;;;12.77;1.92;;;4.90;99.60;;;;;;5047884;28;20039;-73
2022/03/07 06:49:32;;;;;;;10.13;2.20;;;4.90;99.60;;;;;;5065237;28;20024;-73
2022/03/07 06:51:57;;;;;;;5.60;1.65;;;4.90;99.60;;;;;;5065113;28;20039;-73
2022/03/07 06:54:23;;;;;;;8.57;2.45;;;4.90;99.90;;;;;;5065025;28;20287;-74
2022/03/07 06:56:49;;;;;;;5.60;1.80;;;5.00;99.90;;;;;;5065074;28;20028;-74
2022/03/07 06:59:14;;;;;;;7.65;1.65;;;5.00;99.50;;;;;;5064757;28;20033;-73
2022/03/07 07:01:40;;;;;;;7.72;1.23;;;5.00;99.70;;;;;;5064115;28;20297;-74
2022/03/07 07:04:06;;;;;;;7.53;1.40;;;5.00;99.70;;;;;;5064327;28;20328;-75
2022/03/07 07:06:32;;;;;;;9.48;1.50;;;5.10;99.30;;;;;;5064979;28;20036;-74
2022/03/07 07:08:57;;;;;;;7.57;1.38;;;5.10;99.50;;;;;;5063856;28;20051;-73
2022/03/07 07:11:23;;;;;;;9.10;1.52;;;5.10;99.60;;;;;;5064895;28;20076;-75
2022/03/07 07:13:49;;;;;;;13.32;1.63;;;5.10;99.40;;;;;;5081558;28;20345;-74
2022/03/07 07:16:14;;;;;;;10.27;1.17;;;5.10;99.50;;;;;;5084978;28;20020;-74
2022/03/07 07:18:40;;;;;;;9.55;1.98;;;5.20;99.90;;;;;;5084773;28;20085;-73
2022/03/07 07:21:06;;;;;;;9.73;1.27;;;5.20;99.60;;;;;;5084721;28;20326;-73
2022/03/07 07:23:32;;;;;;;9.70;1.48;;;5.10;99.60;;;;;;5084850;28;20035;-73
2022/03/07 07:25:58;;;;;;;12.73;1.50;;;5.20;99.90;;;;;;5084273;28;20227;-73
2022/03/07 07:28:23;;;;;;;15.57;2.13;;;5.30;99.80;;;;;;5084329;28;20032;-74
2022/03/07 07:30:50;;;;;;;10.68;2.00;;;5.30;99.50;;;;;;5100108;28;20083;-74
2022/03/07 07:33:16;;;;;;;6.13;1.17;;;5.40;99.90;;;;;;5098312;28;20021;-74
2022/03/07 07:35:42;;;;;;;9.27;1.80;;;5.30;99.50;;;;;;5100194;28;20108;-73
2022/03/07 07:38:08;;;;;;;11.25;1.98;;;5.30;99.50;;;;;;5099927;28;20025;-75
2022/03/07 07:40:34;;;;;;;15.18;1.90;;;5.30;99.80;;;;;;5084326;28;20027;-74
2022/03/07 07:43:00;;;;;;;3.63;1.30;;;5.30;99.90;;;;;;5084191;28;20394;-74
2022/03/07 07:45:25;;;;;;;15.30;1.90;;;5.40;99.40;;;;;;5099367;28;20059;-72
2022/03/07 07:47:51;;;;;;;8.77;2.60;;;5.30;99.90;;;;;;5084032;28;20020;-76
2022/03/07 07:50:18;;;;;;;11.90;1.45;;;5.30;99.90;;;;;;5100007;28;20020;-72
2022/03/07 07:52:45;;;;;;;6.13;1.70;;;5.30;99.80;;;;;;5066458;28;20043;-70
2022/03/07 07:55:11;;;;;;;12.65;1.60;;;5.40;99.90;;;;;;5084022;28;20021;-71
2022/03/07 07:57:39;;;;;;;9.82;1.83;;;5.50;99.90;;;;;;5100051;28;20027;-71
2022/03/07 08:00:06;;;;;;;13.50;1.73;;;5.60;99.90;;;;;;5082062;28;20245;-71
2022/03/07 08:02:32;;;;;;;10.10;1.92;;;5.60;99.80;;;;;;5099315;28;20071;-72
2022/03/07 08:04:58;;;;;;;12.75;1.60;;;5.60;99.90;;;;;;5072650;28;20087;-72
2022/03/07 08:07:24;;;;;;;7.80;1.50;;;5.70;99.90;;;;;;5062558;28;20086;-72
2022/03/07 08:09:49;;;;;;;10.35;1.48;;;5.70;99.90;;;;;;5063909;28;20361;-72
2022/03/07 08:12:18;;;;;;;16.77;2.15;;;5.80;99.90;;;;;;5063820;28;20023;-74
2022/03/07 08:14:44;;;;;;;10.77;1.40;;;5.80;99.90;;;;;;5078750;28;20249;-70
2022/03/07 08:17:11;;;;;;;7.65;1.75;;;5.90;99.80;;;;;;5079411;28;20092;-72
2022/03/07 08:19:37;;;;;;;6.05;1.88;;;5.90;99.70;;;;;;5063936;28;20036;-72
2022/03/07 08:22:03;;;;;;;14.88;1.70;;;6.00;99.70;;;;;;5062687;28;20323;-73
2022/03/07 08:24:29;;;;;;;4.47;1.83;;;6.20;99.60;;;;;;5063970;28;20028;-72
2022/03/07 08:26:54;;;;;;;9.35;1.73;;;6.20;99.40;;;;;;5079255;28;20067;-73
2022/03/07 08:29:20;;;;;;;9.52;2.10;;;6.20;99.40;;;;;;5079094;28;20216;-72
2022/03/07 08:31:45;;;;;;;10.73;2.13;;;6.30;99.70;;;;;;5078992;28;20298;-72
2022/03/07 08:34:14;;;;;;;13.27;1.52;;;6.30;99.10;;;;;;5060090;28;20075;-70
2022/03/07 08:36:40;;;;;;;11.13;1.35;;;6.20;98.90;;;;;;5062490;28;20208;-70
2022/03/07 08:39:05;;;;;;;4.68;1.23;;;6.30;99.50;;;;;;5063654;28;20021;-70
2022/03/07 08:41:31;;;;;;;11.00;1.60;;;6.30;99.00;;;;;;5062366;28;20024;-71
2022/03/07 08:43:57;;;;;;;12.05;1.67;;;6.40;98.80;;;;;;5063232;28;20017;-73
2022/03/07 08:46:24;;;;;;;8.65;1.50;;;6.40;99.10;;;;;;5078826;28;20094;-71
2022/03/07 08:48:50;;;;;;;11.50;1.48;;;6.30;99.20;;;;;;5080720;28;20304;-72
2022/03/07 08:51:16;;;;;;;7.45;0.93;;;6.40;99.10;;;;;;5082184;28;20047;-71
2022/03/07 08:53:42;;;;;;;5.20;1.40;;;6.30;99.30;;;;;;5082258;28;20024;-73
2022/03/07 08:56:08;;;;;;;20.27;2.13;;;6.40;99.50;;;;;;5082094;28;20343;-73
2022/03/07 08:58:34;;;;;;;9.13;2.05;;;6.40;99.40;;;;;;5098321;28;20017;-72
2022/03/07 09:00:59;;;;;;;9.80;1.35;;;6.40;99.30;;;;;;5082213;28;20031;-72
2022/03/07 09:03:25;;;;;;;5.80;2.03;;;6.50;99.30;;;;;;5082110;28;20075;-73
2022/03/07 09:05:51;;;;;;;9.75;1.83;;;6.40;99.30;;;;;;5082571;28;20041;-73
2022/03/07 09:08:17;;;;;;;10.18;2.17;;;6.50;99.00;;;;;;5082049;28;20048;-71
2022/03/07 09:10:42;;;;;;;6.45;1.40;;;6.40;99.30;;;;;;5082012;28;20081;-72
2022/03/07 09:13:08;;;;;;;8.68;1.92;;;6.40;99.30;;;;;;5071712;28;20025;-72
2022/03/07 09:15:34;;;;;;;8.60;1.20;;;6.50;99.00;;;;;;5063410;28;20022;-75
2022/03/07 09:18:00;;;;;;;8.70;1.38;;;6.70;99.10;;;;;;5065960;28;20176;-72
2022/03/07 09:20:26;;;;;;;8.20;1.45;;;6.60;98.60;;;;;;5067025;28;20020;-72
2022/03/07 09:22:52;;;;;;;12.07;1.58;;;6.60;98.50;;;;;;5066862;28;20304;-70
2022/03/07 09:25:18;;;;;;;7.25;1.27;;;6.70;98.30;;;;;;5067047;28;20080;-72
2022/03/07 09:27:44;;;;;;;11.27;2.13;;;6.80;98.30;;;;;;5068389;28;20070;-74
2022/03/07 09:30:12;;;;;;;13.68;1.55;;;6.80;98.30;;;;;;5084139;28;20063;-74
2022/03/07 09:32:38;;;;;;;11.20;1.60;;;6.70;97.80;;;;;;5086040;28;20020;-71
2022/03/07 09:35:04;;;;;;;8.18;1.50;;;6.70;98.50;;;;;;5087526;28;20043;-72
2022/03/07 09:37:30;;;;;;;9.13;1.40;;;6.80;98.70;;;;;;5068549;28;20037;-71
2022/03/07 09:39:55;;;;;;;9.02;1.58;;;6.90;98.10;;;;;;5102511;28;20158;-71
2022/03/07 09:42:21;;;;;;;7.85;1.48;;;7.00;98.00;;;;;;5086223;28;20031;-70
2022/03/07 09:44:48;;;;;;;9.10;1.70;;;7.00;97.80;;;;;;5102000;28;20194;-72
2022/03/07 09:47:14;;;;;;;7.82;1.52;;;7.00;97.70;;;;;;5086342;28;20028;-71
2022/03/07 09:49:40;;;;;;;8.73;1.55;;;7.10;97.40;;;;;;5068323;28;20024;-72
2022/03/07 09:52:06;;;;;;;8.30;1.63;;;7.00;97.30;;;;;;5068144;28;20028;-74
2022/03/07 09:54:32;;;;;;;7.35;1.20;;;6.90;96.90;;;;;;5085249;28;20062;-73
2022/03/07 09:56:57;;;;;;;16.48;1.40;;;7.00;97.00;;;;;;5086029;28;20059;-72
2022/03/07 09:59:23;;;;;;;9.63;1.85;;;7.10;97.60;;;;;;5068106;28;20292;-74
2022/03/07 10:02:12;;;;;;;3.03;1.08;;;7.20;96.70;;;;;;5086048;28;20246;-73
2022/03/07 10:04:40;;;;;;;8.80;1.40;;;7.20;96.70;;;;;;5084775;28;20016;-70
2022/03/07 10:07:06;;;;;;;8.60;1.48;;;7.30;96.70;;;;;;5079318;28;20052;-73
2022/03/07 10:09:32;;;;;;;5.07;1.25;;;7.40;96.20;;;;;;5065158;28;20216;-74
2022/03/07 10:12:00;;;;;;;5.13;1.20;;;7.50;96.20;;;;;;5067155;28;20027;-71
2022/03/07 10:14:42;;;;;;;6.85;1.30;;;7.60;95.90;;;;;;5066387;28;20021;-74
2022/03/07 10:17:31;;;;;;;9.80;1.27;;;7.50;95.20;;;;;;5049583;28;20277;-74
2022/03/07 10:20:02;;;;;;;6.10;1.27;;;7.50;95.10;;;;;;5072523;28;20024;-74
2022/03/07 10:22:28;;;;;;;6.40;1.42;;;7.60;95.50;;;;;;5084568;28;20035;-75
2022/03/07 10:24:59;;;;;;;5.68;1.20;;;7.50;95.90;;;;;;5072598;28;20058;-71
2022/03/07 10:27:28;;;;;;;7.28;1.63;;;7.40;95.50;;;;;;5047342;28;20292;-72
2022/03/07 10:29:54;;;;;;;10.60;1.40;;;7.40;95.90;;;;;;5064588;28;20025;-74
2022/03/07 10:32:20;;;;;;;2.67;0.90;;;7.30;95.20;;;;;;5069346;28;20309;-71
2022/03/07 10:34:46;;;;;;;6.88;1.00;;;7.20;94.60;;;;;;5084321;28;20021;-72
2022/03/07 10:37:12;;;;;;;6.95;1.00;;;7.10;94.90;;;;;;5066610;28;20020;-71
2022/03/07 10:39:45;;;;;;;5.07;1.20;;;7.10;94.90;;;;;;5084171;28;20033;-73
2022/03/07 10:42:16;;;;;;;5.22;1.13;;;7.20;94.70;;;;;;5084013;28;20084;-74
2022/03/07 10:44:42;;;;;;;9.77;1.20;;;7.20;95.00;;;;;;5084095;28;20081;-75
2022/03/07 10:47:16;;;;;;;8.45;1.50;;;7.30;95.40;;;;;;5083851;28;20028;-73
2022/03/07 10:49:54;;;;;;;6.53;1.52;;;7.40;95.10;;;;;;5084619;28;20051;-73
2022/03/07 10:52:21;;;;;;;11.70;1.27;;;7.50;95.20;;;;;;5083773;28;20024;-71
2022/03/07 10:54:49;;;;;;;6.50;1.70;;;7.40;95.20;;;;;;5084198;28;20238;-72
2022/03/07 10:57:16;;;;;;;10.15;1.67;;;7.30;95.10;;;;;;5084024;28;20016;-72
2022/03/07 10:59:42;;;;;;;4.20;1.30;;;7.40;95.30;;;;;;5072137;28;20066;-73
2022/03/07 11:02:10;;;;;;;12.77;1.40;;;7.40;95.90;;;;;;5083717;28;20020;-73
2022/03/07 11:04:38;;;;;;;5.55;1.38;;;7.50;96.00;;;;;;5050731;28;20036;-73
2022/03/07 11:07:06;;;;;;;2.67;0.95;;;7.50;95.50;;;;;;5083433;28;20386;-72
2022/03/07 11:09:32;;;;;;;6.38;1.45;;;7.50;96.00;;;;;;5067616;28;20028;-72
2022/03/07 11:11:58;;;;;;;7.70;1.65;;;7.60;95.60;;;;;;5098442;28;20056;-71
2022/03/07 11:14:26;;;;;;;4.10;1.23;;;7.60;95.30;;;;;;5056721;28;20334;-71
2022/03/07 11:16:56;;;;;;;6.38;1.27;;;7.50;95.40;;;;;;5069854;28;20045;-69
2022/03/07 11:19:24;;;;;;;9.18;1.35;;;7.50;95.50;;;;;;5064492;28;20020;-70
2022/03/07 11:21:51;;;;;;;5.25;1.10;;;7.60;95.10;;;;;;5064602;28;20049;-75
2022/03/07 11:24:20;;;;;;;6.97;1.73;;;7.70;95.00;;;;;;5064785;28;20017;-72
2022/03/07 11:26:47;;;;;;;6.70;1.52;;;7.70;94.70;;;;;;5063503;28;20031;-71
2022/03/07 11:29:14;;;;;;;5.53;1.30;;;7.80;94.60;;;;;;5049735;28;20016;-72
2022/03/07 11:31:40;;;;;;;9.13;1.58;;;7.80;94.40;;;;;;5072473;28;20035;-74
2022/03/07 11:34:08;;;;;;;5.38;1.15;;;7.90;94.90;;;;;;5084482;28;20062;-72
2022/03/07 11:36:37;;;;;;;6.28;1.40;;;8.10;94.40;;;;;;5081409;28;20242;-71
2022/03/07 11:39:04;;;;;;;10.38;2.45;;;8.10;93.30;;;;;;5083646;28;20029;-70
2022/03/07 11:41:33;;;;;;;4.03;1.10;;;8.10;93.30;;;;;;5066687;28;20036;-73
2022/03/07 11:44:02;;;;;;;8.48;0.90;;;8.10;93.40;;;;;;5083808;28;20017;-71
2022/03/07 11:46:34;;;;;;;8.73;1.40;;;8.10;93.10;;;;;;5062742;28;20116;-70
2022/03/07 11:49:01;;;;;;;;;;;8.10;93.30;;;;;;5063275;28;20306;-71
2022/03/07 11:51:30;;;;;;;4.57;1.00;;;8.20;93.30;;;;;;5062714;28;19991;-72
2022/03/07 11:53:57;;;;;;;9.52;1.25;;;8.40;92.80;;;;;;5062510;28;20096;-71
2022/03/07 11:56:28;;;;;;;5.70;1.13;;;8.40;92.90;;;;;;5079414;28;20044;-72
2022/03/07 11:58:57;;;;;;;7.00;1.50;;;8.50;93.40;;;;;;5060972;28;20020;-74
2022/03/07 12:01:25;;;;;;;4.95;1.10;;;8.60;91.90;;;;;;5069311;28;20047;-73
2022/03/07 12:03:51;;;;;;;7.40;1.27;;;8.70;92.30;;;;;;5081782;28;20024;-74
2022/03/07 12:06:20;;;;;;;5.85;1.58;;;9.00;91.90;;;;;;5082919;28;20050;-73
2022/03/07 12:08:52;;;;;;;9.45;1.17;;;9.10;91.20;;;;;;5099329;28;20043;-73
2022/03/07 12:11:34;;;;;;;5.85;1.58;;;9.10;91.50;;;;;;5082506;28;20037;-70
2022/03/07 12:14:06;;;;;;;7.63;1.45;;;9.10;91.60;;;;;;5096292;28;20246;-73
2022/03/07 12:16:35;;;;;;;5.68;1.25;;;8.90;91.50;;;;;;5062925;28;20062;-74
2022/03/07 12:19:22;;;;;;;7.05;1.27;;;8.60;91.50;;;;;;5062559;28;20232;-72
2022/03/07 12:21:49;;;;;;;7.15;1.40;;;8.50;91.90;;;;;;5064289;28;20306;-74
2022/03/07 12:24:18;;;;;;;7.57;1.63;;;8.50;92.10;;;;;;5063769;28;20021;-73
2022/03/07 12:26:53;;;;;;;7.40;1.30;;;8.40;92.20;;;;;;5062608;28;20043;-73
2022/03/07 12:29:21;;;;;;;9.30;1.58;;;8.40;92.50;;;;;;5061931;28;20035;-72
2022/03/07 12:32:07;;;;;;;6.50;1.70;;;8.40;92.70;;;;;;5065765;28;20024;-73
2022/03/07 12:34:36;;;;;;;8.13;1.33;;;8.40;91.70;;;;;;5084957;28;20020;-70
2022/03/07 12:37:10;;;;;;;9.93;1.23;;;8.40;92.20;;;;;;5081883;28;20040;-71
2022/03/07 12:39:57;;;;;;;4.20;1.08;;;8.50;91.30;;;;;;5082276;28;20023;-71
2022/03/07 12:42:26;;;;;;;12.88;1.88;;;8.40;91.40;;;;;;5068362;28;20035;-73
2022/03/07 12:44:52;;;;;;;11.43;1.35;;;8.30;92.00;;;;;;5062581;28;20028;-73
2022/03/07 12:47:26;;;;;;;4.82;1.40;;;8.20;91.90;;;;;;5062355;28;20094;-75
2022/03/07 12:49:52;;;;;;;8.80;1.73;;;8.00;91.60;;;;;;5049307;28;20074;-73
2022/03/07 12:52:35;;;;;;;11.23;1.70;;;7.90;92.10;;;;;;5085121;28;20068;-71
2022/03/07 12:55:07;;;;;;;9.93;2.38;;;7.80;92.10;;;;;;5085359;28;20029;-74